Time;durP1;ratioP1;P1;durP2;ratioP2;P2;SDS_P1;SDS_P2;PMS_P1;PMS_P2;Temp;Humidity;BMP_temperature;BMP_pressure;BME280_temperature;BME280_humidity;BME280_pressure;Samples;Min_cycle;Max_cycle;Signal;HPM_P1;HPM_P2
2023/07/15 00:00:15;;;;;;;1999.90;999.90;;;20.80;99.90;;;;;;4953360;29;20023;-71
2023/07/15 00:02:42;;;;;;;1999.90;999.90;;;20.80;99.90;;;;;;4953344;29;20446;-70
2023/07/15 00:05:32;;;;;;;1999.90;999.90;;;20.70;99.90;;;;;;4955122;28;20502;-70
2023/07/15 00:07:57;;;;;;;1999.90;999.90;;;20.70;99.90;;;;;;4954624;28;20102;-73
2023/07/15 00:10:23;;;;;;;1999.90;999.90;;;20.60;99.90;;;;;;4954382;28;20502;-70
2023/07/15 00:12:49;;;;;;;1999.90;999.90;;;20.60;99.90;;;;;;4954962;29;20031;-70
2023/07/15 00:15:14;;;;;;;1999.90;999.90;;;20.70;99.90;;;;;;4954621;29;20487;-71
2023/07/15 00:17:40;;;;;;;1999.90;999.90;;;20.70;99.90;;;;;;4953934;29;20031;-70
2023/07/15 00:20:09;;;;;;;1999.90;999.90;;;20.70;99.90;;;;;;4936673;29;20031;-70
2023/07/15 00:22:35;;;;;;;1999.90;999.90;;;20.70;99.90;;;;;;4954499;29;20062;-71
2023/07/15 00:25:05;;;;;;;1999.90;999.90;;;20.70;99.90;;;;;;4954740;29;20035;-71
2023/07/15 00:27:30;;;;;;;1999.90;999.90;;;20.70;99.90;;;;;;4954649;29;20044;-70
2023/07/15 00:29:56;;;;;;;1999.90;999.90;;;20.60;99.90;;;;;;4954679;29;20030;-70
2023/07/15 00:32:22;;;;;;;1999.90;999.90;;;20.70;99.90;;;;;;4954415;29;20368;-70
2023/07/15 00:34:47;;;;;;;1999.90;999.90;;;20.70;99.90;;;;;;4954430;28;20031;-73
2023/07/15 00:37:13;;;;;;;1999.90;999.90;;;20.60;99.90;;;;;;4957033;29;20537;-70
2023/07/15 00:39:40;;;;;;;1999.90;999.90;;;20.60;99.90;;;;;;4958333;28;20102;-70
2023/07/15 00:42:11;;;;;;;1999.90;999.90;;;20.60;99.90;;;;;;4958160;28;20019;-71
2023/07/15 00:44:36;;;;;;;1999.90;999.90;;;20.60;99.90;;;;;;4955637;29;20457;-71
2023/07/15 00:47:08;;;;;;;1999.90;999.90;;;20.60;99.90;;;;;;4957033;28;20066;-71
2023/07/15 00:49:34;;;;;;;1999.90;999.90;;;20.60;99.90;;;;;;4957947;28;20397;-70
2023/07/15 00:52:05;;;;;;;1999.90;999.90;;;20.60;99.90;;;;;;4957971;28;20114;-70
2023/07/15 00:54:34;;;;;;;1999.90;999.90;;;20.60;99.90;;;;;;4956538;29;20447;-70
2023/07/15 00:57:01;;;;;;;1999.90;999.90;;;20.60;99.90;;;;;;4957749;28;20035;-70
2023/07/15 00:59:28;;;;;;;1999.90;999.90;;;20.60;99.90;;;;;;4957545;28;20028;-74
2023/07/15 01:01:54;;;;;;;1999.90;999.90;;;20.60;99.90;;;;;;4956386;29;20031;-71
2023/07/15 01:04:21;;;;;;;1999.90;999.90;;;20.60;99.90;;;;;;4957581;28;20079;-74
2023/07/15 01:06:47;;;;;;;1999.90;999.90;;;20.50;99.90;;;;;;4956178;29;20035;-70
2023/07/15 01:09:13;;;;;;;1999.90;999.90;;;20.60;99.90;;;;;;4957793;28;20059;-70
2023/07/15 01:11:39;;;;;;;1999.90;999.90;;;20.60;99.90;;;;;;4956264;29;20479;-73
2023/07/15 01:14:05;;;;;;;1999.90;999.90;;;20.60;99.90;;;;;;4957080;28;20501;-70
2023/07/15 01:16:32;;;;;;;1999.90;999.90;;;20.60;99.90;;;;;;4957295;29;20035;-70
2023/07/15 01:18:58;;;;;;;1999.90;999.90;;;20.60;99.90;;;;;;4956440;29;20027;-70
2023/07/15 01:21:27;;;;;;;1999.90;999.90;;;20.60;99.90;;;;;;4957228;29;20085;-70
2023/07/15 01:23:53;;;;;;;1999.90;999.90;;;20.60;99.90;;;;;;4940235;29;20374;-70
2023/07/15 01:26:19;;;;;;;1999.90;999.90;;;20.60;99.90;;;;;;4957278;29;20035;-74
2023/07/15 01:28:44;;;;;;;1999.90;999.90;;;20.60;99.90;;;;;;4957024;29;20023;-73
2023/07/15 01:31:10;;;;;;;1999.90;999.90;;;20.60;99.90;;;;;;4957603;29;20035;-70
2023/07/15 01:33:36;;;;;;;1999.90;999.90;;;20.70;99.90;;;;;;4956954;29;20518;-70
2023/07/15 01:36:04;;;;;;;1999.90;999.90;;;20.70;99.90;;;;;;4956779;29;20086;-70
2023/07/15 01:38:30;;;;;;;1999.90;999.90;;;20.60;99.90;;;;;;4956923;29;20023;-73
2023/07/15 01:40:56;;;;;;;1999.90;999.90;;;20.70;99.90;;;;;;4956738;29;20050;-73
2023/07/15 01:43:21;;;;;;;1999.90;999.90;;;20.70;99.90;;;;;;4957180;29;20031;-70
2023/07/15 01:45:47;;;;;;;1999.90;999.90;;;20.70;99.90;;;;;;4956738;29;20542;-70
2023/07/15 01:48:12;;;;;;;1999.90;999.90;;;20.70;99.90;;;;;;4956245;28;20019;-70
2023/07/15 01:50:39;;;;;;;1999.90;999.90;;;20.70;99.90;;;;;;4956786;29;20502;-73
2023/07/15 01:53:05;;;;;;;1999.90;999.90;;;20.70;99.90;;;;;;4956525;28;20043;-73
2023/07/15 01:55:31;;;;;;;1999.90;999.90;;;20.70;99.90;;;;;;4956991;29;20031;-70
2023/07/15 01:57:57;;;;;;;1999.90;999.90;;;20.60;99.90;;;;;;4956377;29;20038;-70
2023/07/15 02:00:23;;;;;;;1999.90;999.90;;;20.60;99.90;;;;;;4956857;29;20031;-70
2023/07/15 02:02:49;;;;;;;1999.90;999.90;;;20.50;99.90;;;;;;4956560;29;20031;-73
2023/07/15 02:05:15;;;;;;;1999.90;999.90;;;20.50;99.90;;;;;;4956739;29;20031;-73
2023/07/15 02:07:41;;;;;;;1999.90;999.90;;;20.50;99.90;;;;;;4956733;29;20029;-70
2023/07/15 02:10:07;;;;;;;1999.90;999.90;;;20.60;99.90;;;;;;4956140;29;20482;-70
2023/07/15 02:12:33;;;;;;;1999.90;999.90;;;20.50;99.90;;;;;;4956151;29;20034;-70
2023/07/15 02:14:59;;;;;;;1999.90;999.90;;;20.50;99.90;;;;;;4956182;29;20114;-70
2023/07/15 02:17:25;;;;;;;1999.90;999.90;;;20.50;99.90;;;;;;4955975;29;20121;-74
2023/07/15 02:19:51;;;;;;;1999.90;999.90;;;20.50;99.90;;;;;;4955711;29;20035;-73
2023/07/15 02:22:17;;;;;;;1999.90;999.90;;;20.50;99.90;;;;;;4938676;29;20118;-70
2023/07/15 02:24:43;;;;;;;1999.90;999.90;;;20.50;99.90;;;;;;4956430;29;20114;-70
2023/07/15 02:27:09;;;;;;;1999.90;999.90;;;20.50;99.90;;;;;;4955976;29;20031;-70
2023/07/15 02:29:34;;;;;;;1999.90;999.90;;;20.60;99.90;;;;;;4956615;29;20469;-74
2023/07/15 02:32:00;;;;;;;1999.90;999.90;;;20.60;99.90;;;;;;4956053;29;20024;-73
2023/07/15 02:34:26;;;;;;;1999.90;999.90;;;20.60;99.90;;;;;;4955794;29;20051;-73
2023/07/15 02:36:52;;;;;;;1999.90;999.90;;;20.60;99.90;;;;;;4955924;28;20426;-70
2023/07/15 02:39:18;;;;;;;1999.90;999.90;;;20.60;99.90;;;;;;4955927;28;20074;-70
2023/07/15 02:41:44;;;;;;;1999.90;999.90;;;20.60;99.90;;;;;;4954873;29;20027;-70
2023/07/15 02:44:10;;;;;;;1999.90;999.90;;;20.60;99.90;;;;;;4955986;28;20027;-70
2023/07/15 02:46:35;;;;;;;1999.90;999.90;;;20.60;99.90;;;;;;4956089;28;20023;-70
2023/07/15 02:49:02;;;;;;;1999.90;999.90;;;20.60;99.90;;;;;;4955885;28;20198;-70
2023/07/15 02:51:28;;;;;;;1999.90;999.90;;;20.60;99.90;;;;;;4955439;28;20024;-70
2023/07/15 02:53:54;;;;;;;1999.90;999.90;;;20.60;99.90;;;;;;4953820;29;20569;-70
2023/07/15 02:56:20;;;;;;;1999.90;999.90;;;20.50;99.90;;;;;;4955326;28;20027;-70
2023/07/15 02:58:45;;;;;;;1999.90;999.90;;;20.60;99.90;;;;;;4954397;28;20032;-70
2023/07/15 03:01:11;;;;;;;1999.90;999.90;;;20.60;99.90;;;;;;4955738;28;20027;-70
2023/07/15 03:03:37;;;;;;;1999.90;999.90;;;20.60;99.90;;;;;;4955442;28;20393;-70
2023/07/15 03:06:03;;;;;;;1999.90;999.90;;;20.60;99.90;;;;;;4954219;29;20451;-70
2023/07/15 03:08:30;;;;;;;1999.90;999.90;;;20.60;99.90;;;;;;4953755;29;20062;-74
2023/07/15 03:10:55;;;;;;;1999.90;999.90;;;20.60;99.90;;;;;;4955379;28;20105;-73
2023/07/15 03:13:21;;;;;;;1999.90;999.90;;;20.60;99.90;;;;;;4937792;29;20475;-70
2023/07/15 03:15:47;;;;;;;1999.90;999.90;;;20.60;99.90;;;;;;4954960;29;20034;-70
2023/07/15 03:18:13;;;;;;;1999.90;999.90;;;20.70;99.90;;;;;;4954994;29;20106;-70
2023/07/15 03:20:39;;;;;;;1999.90;999.90;;;20.60;99.90;;;;;;4953361;29;20019;-70
2023/07/15 03:23:04;;;;;;;1999.90;999.90;;;20.60;99.90;;;;;;4955415;29;20486;-74
2023/07/15 03:25:30;;;;;;;1999.90;999.90;;;20.60;99.90;;;;;;4955130;29;20026;-73
2023/07/15 03:27:56;;;;;;;1999.90;999.90;;;20.60;99.90;;;;;;4955046;29;20106;-70
2023/07/15 03:30:21;;;;;;;1999.90;999.90;;;20.60;99.90;;;;;;4955179;29;20038;-70
2023/07/15 03:32:47;;;;;;;1999.90;999.90;;;20.60;99.90;;;;;;4954696;29;20038;-70
2023/07/15 03:35:13;;;;;;;1999.90;999.90;;;20.60;99.90;;;;;;4954842;28;20037;-73
2023/07/15 03:37:43;;;;;;;1999.90;999.90;;;20.60;99.90;;;;;;4954920;28;20027;-74
2023/07/15 03:40:10;;;;;;;1999.90;999.90;;;20.60;99.90;;;;;;4954845;28;20043;-70
2023/07/15 03:42:40;;;;;;;1999.90;999.90;;;20.70;99.90;;;;;;4953479;29;20479;-70
2023/07/15 03:45:06;;;;;;;1999.90;999.90;;;20.70;99.90;;;;;;4954776;28;20043;-70
2023/07/15 03:47:34;;;;;;;1999.90;999.90;;;20.70;99.90;;;;;;4954679;28;20043;-70
2023/07/15 03:50:01;;;;;;;1999.90;999.90;;;20.70;99.90;;;;;;4954721;28;20055;-73
2023/07/15 03:52:27;;;;;;;1999.90;999.90;;;20.70;99.90;;;;;;4954803;28;20067;-70
2023/07/15 03:54:53;;;;;;;1999.90;999.90;;;20.70;99.90;;;;;;4954900;28;20070;-70
2023/07/15 03:57:18;;;;;;;1999.90;999.90;;;20.70;99.90;;;;;;4954803;28;20027;-70
2023/07/15 03:59:44;;;;;;;1999.90;999.90;;;20.70;99.90;;;;;;4954747;28;20035;-71
2023/07/15 04:02:09;;;;;;;1999.90;999.90;;;20.70;99.90;;;;;;4954654;28;20146;-74
2023/07/15 04:04:35;;;;;;;1999.90;999.90;;;20.70;99.90;;;;;;4954683;28;20395;-70
2023/07/15 04:07:01;;;;;;;1999.90;999.90;;;20.80;99.90;;;;;;4954784;28;20113;-70
2023/07/15 04:09:27;;;;;;;1999.90;999.90;;;20.70;99.90;;;;;;4954469;28;20031;-70
2023/07/15 04:11:53;;;;;;;1999.90;999.90;;;20.80;99.90;;;;;;4958885;29;20103;-70
2023/07/15 04:14:19;;;;;;;1999.90;999.90;;;20.70;99.90;;;;;;4958072;29;20059;-70
2023/07/15 04:16:44;;;;;;;1999.90;999.90;;;20.70;99.90;;;;;;4958879;29;20463;-74
2023/07/15 04:19:10;;;;;;;1999.90;999.90;;;20.70;99.90;;;;;;4958298;29;20027;-70
2023/07/15 04:21:36;;;;;;;1999.90;999.90;;;20.70;99.90;;;;;;4957329;29;20375;-70
2023/07/15 04:24:03;;;;;;;1999.90;999.90;;;20.70;99.90;;;;;;4958300;29;20493;-70
2023/07/15 04:26:29;;;;;;;1999.90;999.90;;;20.70;99.90;;;;;;4958188;29;20031;-75
2023/07/15 04:28:55;;;;;;;1999.90;999.90;;;20.70;99.90;;;;;;4958139;29;20023;-73
2023/07/15 04:31:21;;;;;;;1999.90;999.90;;;20.60;99.90;;;;;;4958534;29;20030;-70
2023/07/15 04:33:49;;;;;;;1999.90;999.90;;;20.70;99.90;;;;;;4957752;29;20019;-70
2023/07/15 04:36:17;;;;;;;1999.90;999.90;;;20.70;99.90;;;;;;4957939;28;20095;-70
2023/07/15 04:38:43;;;;;;;1999.90;999.90;;;20.70;99.90;;;;;;4958040;28;20055;-70
2023/07/15 04:41:09;;;;;;;1999.90;999.90;;;20.70;99.90;;;;;;4958417;28;20059;-70
2023/07/15 04:43:34;;;;;;;1999.90;999.90;;;20.70;99.90;;;;;;4957991;28;20027;-73
2023/07/15 04:46:00;;;;;;;1999.90;999.90;;;20.70;99.90;;;;;;4956503;29;20038;-70
2023/07/15 04:48:26;;;;;;;1999.90;999.90;;;20.80;99.90;;;;;;4957984;28;20109;-70
2023/07/15 04:50:52;;;;;;;1999.90;999.90;;;20.80;99.90;;;;;;4956292;29;20039;-70
2023/07/15 04:53:17;;;;;;;1999.90;999.90;;;20.80;99.90;;;;;;4957703;28;20051;-74
2023/07/15 04:55:45;;;;;;;1999.90;999.90;;;20.80;99.90;;;;;;4957924;28;20031;-74
2023/07/15 04:58:12;;;;;;;1999.90;999.90;;;20.80;99.90;;;;;;4957890;28;20102;-71
2023/07/15 05:00:37;;;;;;;1999.90;999.90;;;20.80;99.90;;;;;;4957673;28;20019;-70
2023/07/15 05:03:05;;;;;;;1999.90;999.90;;;20.70;99.90;;;;;;4957417;28;20450;-73
2023/07/15 05:05:30;;;;;;;1999.90;999.90;;;20.70;99.90;;;;;;4957784;28;20024;-74
2023/07/15 05:08:07;;;;;;;1999.90;999.90;;;20.70;99.90;;;;;;4957766;28;20466;-70
2023/07/15 05:10:33;;;;;;;1999.90;999.90;;;20.70;99.90;;;;;;4957757;28;20541;-73
2023/07/15 05:12:59;;;;;;;1999.90;999.90;;;20.70;99.90;;;;;;4957187;29;20059;-69
2023/07/15 05:15:24;;;;;;;1999.90;999.90;;;20.60;99.90;;;;;;4936943;29;20070;-69
2023/07/15 05:17:50;;;;;;;1999.90;999.90;;;20.60;99.90;;;;;;4938151;29;20024;-70
2023/07/15 05:20:18;;;;;;;1999.90;999.90;;;20.60;99.90;;;;;;4936732;29;20031;-73
2023/07/15 05:22:44;;;;;;;1999.90;999.90;;;20.60;99.90;;;;;;4936409;29;20047;-70
2023/07/15 05:25:10;;;;;;;1999.90;999.90;;;20.60;99.90;;;;;;4948384;29;20055;-69
2023/07/15 05:27:35;;;;;;;1999.90;999.90;;;20.60;99.90;;;;;;4956963;29;20027;-70
2023/07/15 05:30:01;;;;;;;1999.90;999.90;;;20.60;99.90;;;;;;4955818;29;20086;-70
2023/07/15 05:32:27;;;;;;;1999.90;999.90;;;20.60;99.90;;;;;;4955500;29;20034;-70
2023/07/15 05:34:53;;;;;;;1999.90;999.90;;;20.60;99.90;;;;;;4957068;28;20039;-70
2023/07/15 05:37:18;;;;;;;1999.90;999.90;;;20.50;99.90;;;;;;4956690;28;20059;-70
2023/07/15 05:39:47;;;;;;;1999.90;999.90;;;20.50;99.90;;;;;;4956878;28;20497;-70
2023/07/15 05:42:12;;;;;;;1999.90;999.90;;;20.50;99.90;;;;;;4957152;28;20035;-70
2023/07/15 05:44:38;;;;;;;1999.90;999.90;;;20.60;99.90;;;;;;4956914;28;20027;-70
2023/07/15 05:47:04;;;;;;;1999.90;999.90;;;20.70;99.90;;;;;;4956722;28;20466;-74
2023/07/15 05:49:29;;;;;;;1999.90;999.90;;;20.70;99.90;;;;;;4956541;28;20035;-70
2023/07/15 05:51:55;;;;;;;1999.90;999.90;;;20.60;99.90;;;;;;4956751;28;20497;-69
2023/07/15 05:54:21;;;;;;;1999.90;999.90;;;20.60;99.90;;;;;;4956538;28;20063;-69
2023/07/15 05:56:46;;;;;;;1999.90;999.90;;;20.60;99.90;;;;;;4956686;28;20494;-70
2023/07/15 05:59:12;;;;;;;1999.90;999.90;;;20.50;99.90;;;;;;4956346;28;20056;-75
2023/07/15 06:01:37;;;;;;;1999.90;999.90;;;20.50;99.90;;;;;;4956290;28;20051;-69
2023/07/15 06:04:06;;;;;;;1999.90;999.90;;;20.50;99.90;;;;;;4956703;28;20027;-69
2023/07/15 06:06:32;;;;;;;1999.90;999.90;;;20.50;99.90;;;;;;4956908;28;20151;-70
2023/07/15 06:08:57;;;;;;;1999.90;999.90;;;20.30;99.90;;;;;;4956032;28;20501;-70
2023/07/15 06:11:23;;;;;;;1999.90;999.90;;;20.40;99.90;;;;;;4956890;29;20035;-74
2023/07/15 06:13:49;;;;;;;1999.90;999.90;;;20.40;99.90;;;;;;4955809;29;20095;-74
2023/07/15 06:16:14;;;;;;;1999.90;999.90;;;20.50;99.90;;;;;;4938876;29;20432;-70
2023/07/15 06:18:40;;;;;;;1999.90;999.90;;;20.50;99.90;;;;;;4956420;29;20027;-69
2023/07/15 06:21:07;;;;;;;1999.90;999.90;;;20.50;99.90;;;;;;4937877;29;20023;-69
2023/07/15 06:23:33;;;;;;;1999.90;999.90;;;20.60;99.90;;;;;;4955441;29;20074;-74
2023/07/15 06:25:59;;;;;;;1999.90;999.90;;;20.60;99.90;;;;;;4955813;29;20439;-73
2023/07/15 06:28:25;;;;;;;1999.90;999.90;;;20.60;99.90;;;;;;4956181;29;20031;-69
2023/07/15 06:31:00;;;;;;;1999.90;999.90;;;20.60;99.90;;;;;;4955910;29;20039;-69
2023/07/15 06:33:26;;;;;;;1999.90;999.90;;;20.50;99.90;;;;;;4955623;28;20414;-70
2023/07/15 06:35:52;;;;;;;1999.90;999.90;;;20.60;99.90;;;;;;4955974;28;20031;-69
2023/07/15 06:38:18;;;;;;;1999.90;999.90;;;20.60;99.90;;;;;;4955614;28;20459;-74
2023/07/15 06:40:43;;;;;;;1999.90;999.90;;;20.60;99.90;;;;;;4955685;28;20063;-69
2023/07/15 06:43:09;;;;;;;1999.90;999.90;;;20.60;99.90;;;;;;4956188;28;20063;-71
2023/07/15 06:45:35;;;;;;;1999.90;999.90;;;20.60;99.90;;;;;;4955879;28;20486;-70
2023/07/15 06:48:01;;;;;;;1999.90;999.90;;;20.70;99.90;;;;;;4956078;28;20035;-71
2023/07/15 06:50:27;;;;;;;1999.90;999.90;;;20.70;99.90;;;;;;4955794;28;20553;-74
2023/07/15 06:52:53;;;;;;;1999.90;999.90;;;20.70;99.90;;;;;;4955372;28;20110;-70
2023/07/15 06:55:18;;;;;;;1999.90;999.90;;;20.80;99.90;;;;;;4955676;28;20027;-70
2023/07/15 06:57:44;;;;;;;1999.90;999.90;;;20.80;99.90;;;;;;4955559;28;20106;-70
2023/07/15 07:00:10;;;;;;;1999.90;999.90;;;20.80;99.90;;;;;;4955662;28;20030;-70
2023/07/15 07:02:36;;;;;;;1999.90;999.90;;;20.80;99.90;;;;;;4955334;28;20088;-74
2023/07/15 07:05:01;;;;;;;1999.90;999.90;;;20.80;99.90;;;;;;4958394;28;20027;-70
2023/07/15 07:07:27;;;;;;;1999.90;999.90;;;20.80;99.90;;;;;;4955466;28;20479;-70
2023/07/15 07:09:53;;;;;;;1999.90;999.90;;;20.90;99.90;;;;;;4955252;28;20051;-71
2023/07/15 07:12:18;;;;;;;1999.90;999.90;;;20.90;99.90;;;;;;4955302;29;20482;-69
2023/07/15 07:14:44;;;;;;;1999.90;999.90;;;21.00;99.90;;;;;;4954938;29;20034;-73
2023/07/15 07:17:09;;;;;;;1999.90;999.90;;;21.00;99.90;;;;;;4955204;29;20038;-69
2023/07/15 07:19:35;;;;;;;1999.90;999.90;;;21.00;99.90;;;;;;4938321;29;20028;-69
2023/07/15 07:22:01;;;;;;;1999.90;999.90;;;21.00;99.90;;;;;;4955220;29;20027;-69
2023/07/15 07:24:26;;;;;;;1999.90;999.90;;;21.00;99.90;;;;;;4938327;29;20019;-68
2023/07/15 07:26:52;;;;;;;1999.90;999.90;;;21.00;99.90;;;;;;4955139;29;20035;-69
2023/07/15 07:29:17;;;;;;;1999.90;999.90;;;20.80;99.90;;;;;;4955909;29;20478;-74
2023/07/15 07:31:43;;;;;;;1999.90;999.90;;;20.70;99.90;;;;;;4954444;29;20028;-69
2023/07/15 07:34:09;;;;;;;1999.90;999.90;;;20.70;99.90;;;;;;4955090;29;20055;-74
2023/07/15 07:36:34;;;;;;;1999.90;999.90;;;20.70;99.90;;;;;;4955068;29;20491;-70
2023/07/15 07:39:00;;;;;;;1999.90;999.90;;;20.70;99.90;;;;;;4954907;29;20024;-69
2023/07/15 07:41:25;;;;;;;1999.90;999.90;;;20.90;99.90;;;;;;4954783;29;20474;-70
2023/07/15 07:43:51;;;;;;;1999.90;999.90;;;20.80;99.90;;;;;;4954901;29;20077;-69
2023/07/15 07:46:16;;;;;;;1999.90;999.90;;;20.80;99.90;;;;;;4960467;28;20028;-69
2023/07/15 07:48:42;;;;;;;1999.90;999.90;;;20.80;99.90;;;;;;4961612;28;20039;-69
2023/07/15 07:51:08;;;;;;;1999.90;999.90;;;21.00;99.90;;;;;;4961306;28;20089;-69
2023/07/15 07:53:33;;;;;;;1999.90;999.90;;;21.10;99.90;;;;;;4961023;28;20506;-69
2023/07/15 07:55:59;;;;;;;1999.90;999.90;;;21.00;99.90;;;;;;4961325;28;20383;-74
2023/07/15 07:58:25;;;;;;;1999.90;999.90;;;20.90;99.90;;;;;;4961057;28;20074;-69
2023/07/15 08:00:50;;;;;;;1999.90;999.90;;;20.90;99.90;;;;;;4961409;28;20023;-73
2023/07/15 08:03:16;;;;;;;1999.90;999.90;;;20.90;99.90;;;;;;4961298;29;20027;-70
2023/07/15 08:05:47;;;;;;;1999.90;999.90;;;21.40;99.90;;;;;;4961377;29;20130;-69
2023/07/15 08:08:13;;;;;;;1999.90;999.90;;;21.70;99.90;;;;;;4961528;28;20550;-69
2023/07/15 08:10:39;;;;;;;1999.90;999.90;;;21.60;99.90;;;;;;4961723;28;20055;-74
2023/07/15 08:13:06;;;;;;;1999.90;999.90;;;21.20;99.90;;;;;;4960697;29;20106;-69
2023/07/15 08:15:36;;;;;;;1999.90;999.90;;;21.00;99.90;;;;;;4961169;28;20046;-70
2023/07/15 08:18:03;;;;;;;1999.90;999.90;;;20.90;99.90;;;;;;4960953;28;20469;-69
2023/07/15 08:20:32;;;;;;;1999.90;999.90;;;20.90;99.90;;;;;;4961374;29;20554;-69
2023/07/15 08:22:58;;;;;;;1999.90;999.90;;;20.80;99.90;;;;;;4943574;29;20023;-72
2023/07/15 08:25:24;;;;;;;1999.90;999.90;;;20.40;99.90;;;;;;4960429;29;20027;-68
2023/07/15 08:27:51;;;;;;;1999.90;999.90;;;20.00;99.90;;;;;;4961414;29;20382;-68
2023/07/15 08:30:17;;;;;;;1999.90;999.90;;;19.90;99.90;;;;;;4960831;29;20030;-68
2023/07/15 08:32:43;;;;;;;1999.90;999.90;;;19.80;99.90;;;;;;4959337;28;20122;-69
2023/07/15 08:35:08;;;;;;;1999.90;999.90;;;19.80;99.90;;;;;;4960845;29;20069;-69
2023/07/15 08:37:34;;;;;;;1999.90;999.90;;;19.80;99.90;;;;;;4960587;29;20023;-73
2023/07/15 08:39:59;;;;;;;1999.90;999.90;;;19.90;99.90;;;;;;4961133;28;20029;-69
2023/07/15 08:42:27;;;;;;;1999.90;999.90;;;19.90;99.90;;;;;;4960800;29;20375;-68
2023/07/15 08:44:52;;;;;;;1999.90;999.90;;;19.60;99.90;;;;;;4960922;28;20024;-68
2023/07/15 08:47:20;;;;;;;1999.90;999.90;;;19.50;99.90;;;;;;4960793;29;20529;-74
2023/07/15 08:49:48;;;;;;;1999.90;999.90;;;19.50;99.90;;;;;;4960586;28;20102;-68
2023/07/15 08:52:17;;;;;;;1999.90;999.90;;;20.60;99.90;;;;;;4943340;28;20033;-68
2023/07/15 08:54:43;;;;;;;1999.90;999.90;;;21.20;99.90;;;;;;4943112;29;20461;-69
2023/07/15 08:57:10;;;;;;;1999.90;999.90;;;21.30;99.90;;;;;;4959297;28;20066;-70
2023/07/15 08:59:36;;;;;;;1999.90;999.90;;;21.40;99.90;;;;;;4958103;29;20019;-74
2023/07/15 09:02:01;;;;;;;1999.90;999.90;;;21.10;99.90;;;;;;4957810;29;20031;-74
2023/07/15 09:04:27;;;;;;;1999.90;999.90;;;20.90;99.90;;;;;;4959084;29;20500;-68
2023/07/15 09:06:54;;;;;;;1999.90;999.90;;;21.00;99.90;;;;;;4957344;29;20039;-68
2023/07/15 09:09:37;;;;;;;1999.90;999.90;;;21.10;99.90;;;;;;4957386;29;20382;-69
2023/07/15 09:12:05;;;;;;;1999.90;999.90;;;21.10;99.90;;;;;;4957565;29;20121;-73
2023/07/15 09:14:31;;;;;;;1999.90;999.90;;;21.60;99.90;;;;;;4957489;29;20028;-73
2023/07/15 09:16:58;;;;;;;1999.90;999.90;;;21.40;99.90;;;;;;4957753;29;20035;-70
2023/07/15 09:19:26;;;;;;;1999.90;999.90;;;21.30;99.90;;;;;;4957086;29;20020;-68
2023/07/15 09:21:55;;;;;;;1999.90;999.90;;;21.40;99.90;;;;;;4939517;29;20032;-69
2023/07/15 09:24:22;;;;;;;1999.90;999.90;;;21.60;99.90;;;;;;4956231;29;20098;-69
2023/07/15 09:26:54;;;;;;;1999.90;999.90;;;21.60;99.90;;;;;;4957101;29;20128;-73
2023/07/15 09:29:21;;;;;;;1999.90;999.90;;;21.40;99.90;;;;;;4957424;29;20109;-69
2023/07/15 09:31:46;;;;;;;1999.90;999.90;;;21.30;99.90;;;;;;4957204;29;20391;-69
2023/07/15 09:34:12;;;;;;;1999.90;999.90;;;21.40;99.90;;;;;;4956891;29;20043;-69
2023/07/15 09:36:38;;;;;;;1999.90;999.90;;;21.20;99.90;;;;;;4957067;28;20483;-69
2023/07/15 09:39:14;;;;;;;1999.90;999.90;;;21.00;99.90;;;;;;4956665;28;20038;-74
2023/07/15 09:41:40;;;;;;;1999.90;999.90;;;21.10;99.90;;;;;;4957050;28;20414;-69
2023/07/15 09:44:07;;;;;;;1999.90;999.90;;;21.10;99.90;;;;;;4956910;28;20102;-69
2023/07/15 09:46:33;;;;;;;1999.90;999.90;;;21.30;99.90;;;;;;4955594;29;20046;-70
2023/07/15 09:48:59;;;;;;;1999.90;999.90;;;21.30;99.90;;;;;;4956803;28;20031;-69
2023/07/15 09:51:26;;;;;;;1999.90;999.90;;;21.20;99.90;;;;;;4955809;29;20435;-69
2023/07/15 09:53:53;;;;;;;1999.90;999.90;;;21.30;99.90;;;;;;4956464;28;20075;-75
2023/07/15 09:56:37;;;;;;;1999.90;999.90;;;21.90;99.90;;;;;;4957089;28;20398;-69
2023/07/15 09:59:34;;;;;;;1999.90;999.90;;;22.70;99.90;;;;;;4956480;28;20028;-70
2023/07/15 10:02:10;;;;;;;1999.90;999.90;;;22.80;99.90;;;;;;4935514;29;20035;-70
2023/07/15 10:04:43;;;;;;;1999.90;999.90;;;22.80;99.90;;;;;;4956285;28;20042;-70
2023/07/15 10:07:08;;;;;;;1999.90;999.90;;;22.70;99.90;;;;;;4956810;28;20039;-74
2023/07/15 10:09:36;;;;;;;1999.90;999.90;;;22.70;99.90;;;;;;4955630;29;20027;-70
2023/07/15 10:12:04;;;;;;;1999.90;999.90;;;23.00;99.90;;;;;;4956348;29;20115;-71
2023/07/15 10:14:31;;;;;;;1999.90;999.90;;;24.00;99.90;;;;;;4956187;29;20409;-69
2023/07/15 10:17:14;;;;;;;1999.90;999.90;;;24.50;99.90;;;;;;4956609;29;20027;-71
2023/07/15 10:19:48;;;;;;;1999.90;999.90;;;26.10;99.90;;;;;;4956346;29;20099;-69
2023/07/15 10:22:18;;;;;;;1999.90;999.90;;;27.40;99.90;;;;;;4956163;29;20019;-70
2023/07/15 10:24:55;;;;;;;1999.90;999.90;;;27.80;99.90;;;;;;4955241;29;20026;-70
2023/07/15 10:27:25;;;;;;;1999.90;999.90;;;28.10;99.90;;;;;;4956084;29;20036;-69
2023/07/15 10:30:17;;;;;;;1999.90;999.90;;;28.90;99.90;;;;;;4956310;29;20466;-71
2023/07/15 10:33:09;;;;;;;1999.90;999.90;;;29.40;99.90;;;;;;4958879;28;20489;-75
2023/07/15 10:35:46;;;;;;;1999.90;999.90;;;29.90;99.90;;;;;;4968846;28;20027;-69
2023/07/15 10:38:27;;;;;;;1999.90;999.90;;;28.30;99.90;;;;;;4955723;29;20031;-70
2023/07/15 10:41:00;;;;;;;1999.90;999.90;;;26.90;99.90;;;;;;4956121;29;20035;-69
2023/07/15 10:43:34;;;;;;;1999.90;999.90;;;26.60;99.90;;;;;;4956114;29;20514;-75
2023/07/15 10:46:06;;;;;;;1999.90;999.90;;;26.90;99.90;;;;;;4955710;29;20034;-69
2023/07/15 10:48:32;;;;;;;1999.90;999.90;;;26.60;99.90;;;;;;4938621;29;20031;-69
2023/07/15 10:51:00;;;;;;;1999.90;999.90;;;25.80;99.90;;;;;;4955467;29;20031;-69
2023/07/15 10:53:29;;;;;;;1999.90;999.90;;;26.30;99.90;;;;;;4955568;29;20414;-69
2023/07/15 10:56:09;;;;;;;1999.90;999.90;;;26.80;99.90;;;;;;4955484;29;20028;-71
2023/07/15 10:58:36;;;;;;;1999.90;999.90;;;26.10;99.90;;;;;;4938339;29;20035;-75
2023/07/15 11:01:06;;;;;;;1999.90;999.90;;;26.90;99.90;;;;;;4955659;29;20019;-70
2023/07/15 11:03:35;;;;;;;1999.90;999.90;;;27.40;99.90;;;;;;4955402;29;20475;-70
2023/07/15 11:06:02;;;;;;;1999.90;999.90;;;27.40;99.90;;;;;;4955683;29;20023;-69
2023/07/15 11:08:29;;;;;;;1999.90;999.90;;;26.80;99.90;;;;;;4955139;29;20035;-70
2023/07/15 11:11:02;;;;;;;1999.90;999.90;;;26.00;99.90;;;;;;4955037;29;20027;-75
2023/07/15 11:13:28;;;;;;;1999.90;999.90;;;26.00;99.90;;;;;;4955363;29;20049;-70
2023/07/15 11:15:54;;;;;;;1999.90;999.90;;;26.00;99.90;;;;;;4955312;29;20106;-68
2023/07/15 11:18:23;;;;;;;1999.90;999.90;;;26.60;99.90;;;;;;4937721;29;20038;-68
2023/07/15 11:20:51;;;;;;;1999.90;999.90;;;26.40;99.90;;;;;;4954413;28;20023;-69
2023/07/15 11:23:18;;;;;;;1999.90;999.90;;;26.10;99.90;;;;;;4955237;29;20028;-70
2023/07/15 11:25:44;;;;;;;1999.90;999.90;;;26.00;99.90;;;;;;4954292;29;20028;-75
2023/07/15 11:28:10;;;;;;;1999.90;999.90;;;26.20;99.90;;;;;;4955295;29;20027;-69
2023/07/15 11:30:41;;;;;;;1999.90;999.90;;;26.00;99.90;;;;;;4954992;29;20031;-69
2023/07/15 11:33:07;;;;;;;1999.90;999.90;;;26.00;99.90;;;;;;4960844;28;20030;-69
2023/07/15 11:35:34;;;;;;;1999.90;999.90;;;26.20;99.90;;;;;;4974366;28;20030;-69
2023/07/15 11:38:29;;;;;;;1999.90;999.90;;;26.10;99.90;;;;;;4974236;28;20031;-71
2023/07/15 11:40:59;;;;;;;1999.90;999.90;;;26.30;99.90;;;;;;4973925;28;20022;-70
2023/07/15 11:43:27;;;;;;;1999.90;999.90;;;26.60;99.90;;;;;;4974462;28;20030;-69
2023/07/15 11:45:55;;;;;;;1999.90;999.90;;;27.10;99.90;;;;;;4974137;28;20030;-69
2023/07/15 11:48:26;;;;;;;1999.90;999.90;;;26.70;99.90;;;;;;4974167;28;20041;-75
2023/07/15 11:51:07;;;;;;;1999.90;999.90;;;26.00;99.90;;;;;;4973951;28;20023;-74
2023/07/15 11:53:35;;;;;;;1999.90;999.90;;;25.70;99.90;;;;;;4956559;28;20054;-70
2023/07/15 11:56:01;;;;;;;1999.90;999.90;;;25.60;99.90;;;;;;4974079;28;20513;-69
2023/07/15 11:58:45;;;;;;;1999.90;999.90;;;25.10;99.90;;;;;;4956680;28;20109;-70